Huvudsida
METAR-TAF:

METAR-TAF

Flygplatser :

Macau International Airport

Macao, Kina

latitud: 22-10N, longitud: 113-34E, höjd: 114 m

Aktuellt väderrapport

Denna rapport gjordes för 17 minuter sedan, klockan 08:30 UTC
Vind 12 kt från ost/sydost
Temperatur 25°C
Fuktighet 83%
Tryck 1015 hPa
Sikt 10 km eller mer
Få moln på en höjd av 2500 ft

METAR: VMMC 210830Z 12012KT 9999 FEW025 25/22 Q1015 NOSIG

Tid: 16:47 (08:47 UTC)

Väderprognos

Denna rapport gjordes för 3 timmar och 45 minuter sedan, klockan 05:02 UTC
Prognos gäller från 21 kl. 06 UTC till 22 kl. 12 UTC
Vind 10 kt från ost/sydost
Sikt 10 km eller mer
Få moln på en höjd av 2500 ft

TAF: VMMC 210502Z 2106/2212 11010KT 9999 FEW025

Aktuella väderrapporter och prognoser från 4000 flygplatser (METAR- och TAF-rapporter).

De tillgängliga stationerna syns som gula och röda prickar på kartan.

För musen över prickarna för att se namnen på stationerna.

Klicka sedan för att få väderrapporter och prognoser.

För att ändra kartan: Klicka på de gröna knapparna med ett svart kors på för att zooma in; den gröna knappen med ett streck på för att zooma ut; eller på de gröna pilarna för angränsande kartor.


METAR-TAF: